createdAt,value
2023-03-10T00:01:13.216Z,59.90
2023-03-10T00:03:39.872Z,60.40
2023-03-10T00:06:06.970Z,58.70
2023-03-10T00:08:33.710Z,63.10
2023-03-10T00:11:00.149Z,60.00
2023-03-10T00:13:26.707Z,63.70
2023-03-10T00:15:53.181Z,65.40
2023-03-10T00:18:19.654Z,66.00
2023-03-10T00:20:46.061Z,62.60
2023-03-10T00:23:12.475Z,66.10
2023-03-10T00:25:39.039Z,61.80
2023-03-10T00:28:05.463Z,62.10
2023-03-10T00:30:34.637Z,60.10
2023-03-10T00:33:01.705Z,65.20
2023-03-10T00:35:28.247Z,63.90
2023-03-10T00:38:02.032Z,63.30
2023-03-10T00:40:29.363Z,63.60
2023-03-10T00:42:55.855Z,64.20
2023-03-10T00:45:22.541Z,60.50
2023-03-10T00:47:48.960Z,62.90
2023-03-10T00:50:15.491Z,62.60
2023-03-10T00:52:41.961Z,65.90
2023-03-10T00:55:08.504Z,68.00
2023-03-10T00:57:35.164Z,64.90
2023-03-10T01:00:01.830Z,67.40
2023-03-10T01:02:28.712Z,65.90
2023-03-10T01:04:55.174Z,62.50
2023-03-10T01:07:21.860Z,70.40
2023-03-10T01:09:48.589Z,65.10
2023-03-10T01:12:15.061Z,66.10
2023-03-10T01:14:41.491Z,72.00
2023-03-10T01:17:08.086Z,75.00
2023-03-10T01:19:34.571Z,66.30
2023-03-10T01:22:01.084Z,68.70
2023-03-10T01:24:27.491Z,64.10
2023-03-10T01:26:53.970Z,70.00
2023-03-10T01:29:20.424Z,65.50
2023-03-10T01:31:46.869Z,61.00
2023-03-10T01:34:13.399Z,66.90
2023-03-10T01:36:40.982Z,68.40
2023-03-10T01:39:07.411Z,70.30
2023-03-10T01:41:37.131Z,76.10
2023-03-10T01:44:04.276Z,70.70
2023-03-10T01:46:30.774Z,69.70
2023-03-10T01:49:00.145Z,67.40
2023-03-10T01:51:27.200Z,69.70
2023-03-10T01:53:53.859Z,70.30
2023-03-10T01:56:20.335Z,69.40
2023-03-10T01:58:46.887Z,72.40
2023-03-10T02:01:14.132Z,73.60
2023-03-10T02:03:43.584Z,70.20
2023-03-10T02:06:11.132Z,67.30
2023-03-10T02:08:39.402Z,68.20
2023-03-10T02:11:06.690Z,68.20
2023-03-10T02:13:33.108Z,66.50
2023-03-10T02:18:46.491Z,65.90
2023-03-10T02:21:19.388Z,66.20
2023-03-10T02:24:21.547Z,64.40
2023-03-10T02:27:06.817Z,68.70
2023-03-10T02:29:58.034Z,69.80
2023-03-10T02:32:26.251Z,67.80
2023-03-10T02:34:52.844Z,73.00
2023-03-10T02:37:21.150Z,70.40
2023-03-10T02:39:47.590Z,66.90
2023-03-10T02:42:14.614Z,72.60
2023-03-10T02:44:41.686Z,69.70
2023-03-10T02:47:08.149Z,79.40
2023-03-10T02:49:35.542Z,72.30
2023-03-10T02:52:08.110Z,73.20
2023-03-10T02:54:35.909Z,67.10
2023-03-10T02:57:02.562Z,72.40
2023-03-10T02:59:28.941Z,73.70
2023-03-10T03:01:55.406Z,76.10
2023-03-10T03:04:21.833Z,76.70
2023-03-10T03:06:48.277Z,68.00
2023-03-10T03:09:14.977Z,69.30
2023-03-10T03:11:41.414Z,102.60
2023-03-10T03:14:07.974Z,87.70
2023-03-10T03:16:34.513Z,81.60
2023-03-10T03:19:00.938Z,105.50
2023-03-10T03:21:27.404Z,98.80
2023-03-10T03:23:53.911Z,87.60
2023-03-10T03:26:21.629Z,81.10
2023-03-10T03:28:48.445Z,69.80
2023-03-10T03:31:20.525Z,68.40
2023-03-10T03:33:47.517Z,73.30
2023-03-10T03:36:15.013Z,64.00
2023-03-10T03:38:41.775Z,64.10
2023-03-10T03:41:08.610Z,61.40
2023-03-10T03:43:35.172Z,65.10
2023-03-10T03:46:01.771Z,76.20
2023-03-10T03:48:28.352Z,77.20
2023-03-10T03:50:55.032Z,71.50
2023-03-10T03:53:21.465Z,69.10
2023-03-10T03:55:48.912Z,69.30
2023-03-10T03:58:15.265Z,75.50
2023-03-10T04:00:41.774Z,69.70
2023-03-10T04:03:08.934Z,69.80
2023-03-10T04:05:35.788Z,72.60
2023-03-10T04:08:02.378Z,72.20
2023-03-10T04:10:28.935Z,72.40
2023-03-10T04:12:56.749Z,74.30
2023-03-10T04:15:23.508Z,77.50
2023-03-10T04:17:50.186Z,71.60
2023-03-10T04:20:17.659Z,78.80
2023-03-10T04:22:44.679Z,78.60
2023-03-10T04:25:11.233Z,74.20
2023-03-10T04:27:37.849Z,76.70
2023-03-10T04:30:04.648Z,82.80
2023-03-10T04:32:31.865Z,81.90
2023-03-10T04:34:58.274Z,83.40
2023-03-10T04:37:26.032Z,76.30
2023-03-10T04:39:52.606Z,79.00
2023-03-10T04:42:19.108Z,76.40
2023-03-10T04:44:46.477Z,68.20
2023-03-10T04:47:13.225Z,75.50
2023-03-10T04:49:39.732Z,77.90
2023-03-10T04:52:06.364Z,74.70
2023-03-10T04:54:33.392Z,76.40
2023-03-10T04:56:59.918Z,77.60
2023-03-10T04:59:26.317Z,75.70
2023-03-10T05:01:53.289Z,73.70
2023-03-10T05:04:20.002Z,73.90
2023-03-10T05:06:49.376Z,73.40
2023-03-10T05:09:16.541Z,78.50
2023-03-10T05:11:42.951Z,81.40
2023-03-10T05:14:10.593Z,78.10
2023-03-10T05:16:37.067Z,82.20
2023-03-10T05:19:03.690Z,80.60
2023-03-10T05:21:30.149Z,77.60
2023-03-10T05:23:56.570Z,81.70
2023-03-10T05:26:23.100Z,90.60
2023-03-10T05:28:49.837Z,91.40
2023-03-10T05:31:25.340Z,90.40
2023-03-10T05:33:54.904Z,94.00
2023-03-10T05:36:21.728Z,96.30
2023-03-10T05:38:48.525Z,99.30
2023-03-10T05:41:15.152Z,112.00
2023-03-10T05:43:41.619Z,107.70
2023-03-10T05:46:08.084Z,97.30
2023-03-10T05:48:34.843Z,94.80
2023-03-10T05:51:01.370Z,98.90
2023-03-10T05:53:28.838Z,96.80
2023-03-10T05:56:05.493Z,95.50
2023-03-10T05:58:38.114Z,86.30
2023-03-10T06:01:05.456Z,94.30
2023-03-10T06:03:32.701Z,83.80
2023-03-10T06:05:59.888Z,90.30
2023-03-10T06:08:29.919Z,93.90
2023-03-10T06:10:57.402Z,101.80
2023-03-10T06:13:24.341Z,94.60
2023-03-10T06:15:52.270Z,96.60
2023-03-10T06:18:19.071Z,92.00
2023-03-10T06:20:47.335Z,94.80
2023-03-10T06:23:17.542Z,98.20
2023-03-10T06:25:44.391Z,96.80
2023-03-10T06:28:11.410Z,94.80
2023-03-10T06:30:38.096Z,96.10
2023-03-10T06:33:04.638Z,94.10
2023-03-10T06:35:31.437Z,108.10
2023-03-10T06:37:57.967Z,109.60
2023-03-10T06:40:24.393Z,103.70
2023-03-10T06:42:51.053Z,120.80
2023-03-10T06:45:17.933Z,114.00
2023-03-10T06:47:44.676Z,112.80
2023-03-10T06:50:12.335Z,117.00
2023-03-10T06:52:39.060Z,122.00
2023-03-10T06:55:06.183Z,129.30
2023-03-10T06:57:33.395Z,119.60
2023-03-10T07:00:00.013Z,135.70
2023-03-10T07:02:26.604Z,131.50
2023-03-10T07:04:53.359Z,117.70
2023-03-10T07:07:20.011Z,115.10
2023-03-10T07:09:46.543Z,109.10
2023-03-10T07:12:13.020Z,96.70
2023-03-10T07:14:39.551Z,92.70
2023-03-10T07:17:06.176Z,96.70
2023-03-10T07:19:33.068Z,95.70
2023-03-10T07:21:59.562Z,112.60
2023-03-10T07:24:26.795Z,118.80
2023-03-10T07:26:53.761Z,139.40
2023-03-10T07:29:21.052Z,126.90
2023-03-10T07:31:47.582Z,119.80
2023-03-10T07:34:14.086Z,110.50
2023-03-10T07:37:25.674Z,113.30
2023-03-10T07:39:55.883Z,84.50
2023-03-10T07:42:22.478Z,111.40
2023-03-10T07:44:49.395Z,105.20
2023-03-10T07:47:16.796Z,97.80
2023-03-10T07:49:46.722Z,101.20
2023-03-10T07:52:14.653Z,106.50
2023-03-10T07:54:41.346Z,96.90
2023-03-10T07:57:08.335Z,90.90
2023-03-10T07:59:34.770Z,87.00
2023-03-10T08:02:01.469Z,76.60
2023-03-10T08:04:31.638Z,52.90
2023-03-10T08:07:02.567Z,37.30
2023-03-10T08:09:29.812Z,20.80
2023-03-10T08:11:59.956Z,18.50
2023-03-10T08:14:30.561Z,17.50
2023-03-10T08:16:57.765Z,13.10
2023-03-10T08:19:25.243Z,14.90
2023-03-10T08:21:53.935Z,13.50
2023-03-10T08:24:20.538Z,10.70
2023-03-10T08:26:47.296Z,10.70
2023-03-10T08:29:14.095Z,9.70
2023-03-10T08:31:41.227Z,10.50
2023-03-10T08:34:07.748Z,12.90
2023-03-10T08:36:34.450Z,10.30
2023-03-10T08:39:01.647Z,10.20
2023-03-10T08:41:28.442Z,10.50
2023-03-10T08:43:56.242Z,9.60
2023-03-10T08:46:24.276Z,10.10
2023-03-10T08:48:51.379Z,10.90
2023-03-10T08:51:18.540Z,11.40
2023-03-10T08:53:46.860Z,12.70
2023-03-10T08:56:14.652Z,9.30
2023-03-10T08:58:41.556Z,11.10
2023-03-10T09:01:08.372Z,8.60
2023-03-10T09:03:36.598Z,7.90
2023-03-10T09:06:03.364Z,10.40
2023-03-10T09:08:29.984Z,10.30
2023-03-10T09:10:56.745Z,10.50
2023-03-10T09:13:23.663Z,10.50
2023-03-10T09:15:51.223Z,10.70
2023-03-10T09:20:50.954Z,10.20
2023-03-10T09:23:18.966Z,7.90
2023-03-10T09:25:47.319Z,10.30
2023-03-10T09:28:17.466Z,12.20
2023-03-10T09:30:48.404Z,9.30
2023-03-10T09:33:18.013Z,8.70
2023-03-10T09:35:52.824Z,9.40
2023-03-10T09:38:31.351Z,8.40
2023-03-10T09:41:19.226Z,8.40
2023-03-10T09:43:52.349Z,9.70
2023-03-10T09:46:48.617Z,9.80
2023-03-10T09:49:24.069Z,10.60
2023-03-10T09:51:52.195Z,7.40
2023-03-10T09:54:42.284Z,9.50
2023-03-10T09:57:16.321Z,8.50
2023-03-10T09:59:46.105Z,9.90
2023-03-10T10:02:25.020Z,7.70
2023-03-10T10:04:53.897Z,9.80
2023-03-10T10:07:24.224Z,7.00
2023-03-10T10:09:58.491Z,8.80
2023-03-10T10:12:26.792Z,6.90
2023-03-10T10:15:18.095Z,9.60
2023-03-10T10:17:56.435Z,7.20
2023-03-10T10:20:29.241Z,7.50
2023-03-10T10:22:57.252Z,4.90
2023-03-10T10:25:26.264Z,6.00
2023-03-10T10:27:56.288Z,7.70
2023-03-10T10:30:40.942Z,4.80
2023-03-10T10:33:10.592Z,5.00
2023-03-10T10:35:55.568Z,5.10
2023-03-10T10:38:25.986Z,4.70
2023-03-10T10:40:57.218Z,4.80
2023-03-10T10:43:25.925Z,4.90
2023-03-10T10:45:56.318Z,4.10
2023-03-10T10:48:33.529Z,4.40
2023-03-10T10:51:01.566Z,4.30
2023-03-10T10:53:34.413Z,3.70
2023-03-10T10:56:05.104Z,5.00
2023-03-10T10:58:33.775Z,4.20
2023-03-10T11:01:06.535Z,6.30
2023-03-10T11:03:37.013Z,5.50
2023-03-10T11:06:24.704Z,5.30
2023-03-10T11:09:03.044Z,3.30
2023-03-10T11:12:00.957Z,3.40
2023-03-10T11:14:34.760Z,2.90
2023-03-10T11:17:05.959Z,3.20
2023-03-10T11:19:53.046Z,6.00
2023-03-10T11:22:21.045Z,4.50
2023-03-10T11:24:52.432Z,4.10
2023-03-10T11:27:20.368Z,5.50
2023-03-10T11:30:08.116Z,2.70
2023-03-10T11:32:45.985Z,2.80
2023-03-10T11:35:34.218Z,5.20
2023-03-10T11:38:14.198Z,1.90
2023-03-10T11:40:44.711Z,3.40
2023-03-10T11:43:39.286Z,3.60
2023-03-10T11:46:18.835Z,4.20
2023-03-10T11:48:46.856Z,4.40
2023-03-10T11:51:19.556Z,3.90
2023-03-10T11:53:59.159Z,4.40
2023-03-10T11:56:28.278Z,4.90
2023-03-10T11:59:05.616Z,3.90
2023-03-10T12:01:38.738Z,5.30
2023-03-10T12:04:13.706Z,3.10
2023-03-10T12:06:52.598Z,3.60
2023-03-10T12:09:36.193Z,3.10
2023-03-10T12:12:05.483Z,3.10
2023-03-10T12:14:35.036Z,1.80
2023-03-10T12:17:05.192Z,3.70
2023-03-10T12:19:53.761Z,3.70
2023-03-10T12:22:22.048Z,4.50
2023-03-10T12:24:51.101Z,4.30
2023-03-10T12:27:19.441Z,3.50
2023-03-10T12:29:47.698Z,3.60
2023-03-10T12:32:34.207Z,3.80
2023-03-10T12:35:22.047Z,3.40
2023-03-10T12:37:50.183Z,2.50
2023-03-10T12:40:36.927Z,3.10
2023-03-10T12:43:28.143Z,1.90
2023-03-10T12:45:58.523Z,2.30
2023-03-10T12:48:27.102Z,2.30
2023-03-10T12:50:58.738Z,1.70
2023-03-10T12:53:53.298Z,4.50
2023-03-10T12:56:31.293Z,4.80
2023-03-10T12:59:05.091Z,3.40
2023-03-10T13:01:40.564Z,4.00
2023-03-10T13:04:13.654Z,3.00
2023-03-10T13:06:41.965Z,4.40
2023-03-10T13:09:21.158Z,3.70
2023-03-10T13:12:12.695Z,2.60
2023-03-10T13:14:41.642Z,3.60
2023-03-10T13:17:24.006Z,5.50
2023-03-10T13:20:11.481Z,4.90
2023-03-10T13:22:39.884Z,4.70
2023-03-10T13:25:09.761Z,3.70
2023-03-10T13:27:37.747Z,4.10
2023-03-10T13:30:06.028Z,2.40
2023-03-10T13:32:34.327Z,4.90
2023-03-10T13:35:37.619Z,5.70
2023-03-10T13:38:13.564Z,8.00
2023-03-10T13:41:02.353Z,10.70
2023-03-10T13:43:37.366Z,4.10
2023-03-10T13:46:10.597Z,5.90
2023-03-10T13:48:39.813Z,6.40
2023-03-10T13:51:15.780Z,6.00
2023-03-10T13:53:44.390Z,7.40
2023-03-10T13:56:26.090Z,8.00
2023-03-10T13:58:55.968Z,7.50
2023-03-10T14:01:25.659Z,8.10
2023-03-10T14:03:58.084Z,8.40
2023-03-10T14:06:26.958Z,12.20
2023-03-10T14:08:55.124Z,8.90
2023-03-10T14:11:39.032Z,9.40
2023-03-10T14:14:08.678Z,12.20
2023-03-10T14:16:47.791Z,7.70
2023-03-10T14:19:35.729Z,10.50
2023-03-10T14:22:03.714Z,7.70
2023-03-10T14:24:32.022Z,7.90
2023-03-10T14:28:31.752Z,8.70
2023-03-10T14:31:04.874Z,6.40
2023-03-10T14:33:33.005Z,5.70
2023-03-10T14:36:00.881Z,5.00
2023-03-10T14:38:28.805Z,5.10
2023-03-10T14:40:56.754Z,7.00
2023-03-10T14:43:26.407Z,3.30
2023-03-10T14:45:56.733Z,2.80
2023-03-10T14:53:53.726Z,3.50
2023-03-10T14:56:21.956Z,3.40
2023-03-10T14:58:50.845Z,9.00
2023-03-10T15:01:20.078Z,5.80
2023-03-10T15:03:49.389Z,3.40
2023-03-10T15:06:18.589Z,4.90
2023-03-10T15:08:46.687Z,3.90
2023-03-10T15:11:17.476Z,5.60
2023-03-10T15:13:49.513Z,4.00
2023-03-10T15:16:17.478Z,4.60
2023-03-10T15:18:47.331Z,6.60
2023-03-10T15:21:16.225Z,6.40
2023-03-10T15:23:44.454Z,6.10
2023-03-10T15:26:12.975Z,10.40
2023-03-10T15:28:40.813Z,7.00
2023-03-10T15:38:39.445Z,9.80
2023-03-10T15:41:07.695Z,7.20
2023-03-10T15:43:35.756Z,6.30
2023-03-10T15:46:08.069Z,5.80
2023-03-10T15:48:36.155Z,8.10
2023-03-10T15:51:09.646Z,6.30
2023-03-10T15:53:54.814Z,8.60
2023-03-10T15:56:22.688Z,7.20
2023-03-10T15:58:51.385Z,8.10
2023-03-10T16:01:21.025Z,9.00
2023-03-10T16:03:49.206Z,8.80
2023-03-10T16:06:17.199Z,9.20
2023-03-10T16:08:45.208Z,9.40
2023-03-10T16:11:20.554Z,12.60
2023-03-10T16:13:49.837Z,13.30
2023-03-10T16:16:18.886Z,18.80
2023-03-10T16:18:46.985Z,16.60
2023-03-10T16:21:17.927Z,14.80
2023-03-10T16:23:46.648Z,19.20
2023-03-10T16:26:16.355Z,19.30
2023-03-10T16:28:45.547Z,15.90
2023-03-10T16:31:14.542Z,18.10
2023-03-10T16:33:43.008Z,21.80
2023-03-10T16:36:13.473Z,21.50
2023-03-10T16:38:41.652Z,25.70
2023-03-10T16:41:10.694Z,27.90
2023-03-10T16:43:39.549Z,22.00
2023-03-10T16:46:07.698Z,33.60
2023-03-10T16:48:42.332Z,20.50
2023-03-10T16:51:23.096Z,22.20
2023-03-10T16:53:52.113Z,23.20
2023-03-10T16:56:20.798Z,22.90
2023-03-10T16:58:48.708Z,23.10
2023-03-10T17:01:16.825Z,22.00
2023-03-10T17:03:44.904Z,21.70
2023-03-10T17:06:14.092Z,22.90
2023-03-10T17:08:42.468Z,25.20
2023-03-10T17:11:21.197Z,23.10
2023-03-10T17:13:51.829Z,26.70
2023-03-10T17:16:21.313Z,23.80
2023-03-10T17:18:49.898Z,21.10
2023-03-10T17:21:19.934Z,23.40
2023-03-10T17:23:48.914Z,25.10
2023-03-10T17:26:17.911Z,18.50
2023-03-10T17:28:47.818Z,22.10
2023-03-10T17:31:21.520Z,23.60
2023-03-10T17:33:49.896Z,23.50
2023-03-10T17:36:18.795Z,38.00
2023-03-10T17:38:46.824Z,57.90
2023-03-10T17:41:16.007Z,42.60
2023-03-10T17:43:44.411Z,38.10
2023-03-10T17:46:14.518Z,41.70
2023-03-10T17:48:42.936Z,34.20
2023-03-10T17:51:14.717Z,37.80
2023-03-10T17:53:43.443Z,69.60
2023-03-10T17:56:11.630Z,187.30
2023-03-10T17:58:39.925Z,100.50
2023-03-10T18:01:08.023Z,123.00
2023-03-10T18:03:37.148Z,146.20
2023-03-10T18:06:05.347Z,145.80
2023-03-10T18:08:33.520Z,148.30
2023-03-10T18:11:02.974Z,153.90
2023-03-10T18:13:31.574Z,142.70
2023-03-10T18:15:59.537Z,113.60
2023-03-10T18:18:27.757Z,109.60
2023-03-10T18:20:55.726Z,95.90
2023-03-10T18:23:24.020Z,93.80
2023-03-10T18:25:52.111Z,85.30
2023-03-10T18:28:20.579Z,87.50
2023-03-10T18:30:50.033Z,80.30
2023-03-10T18:33:18.090Z,81.40
2023-03-10T18:35:46.916Z,90.30
2023-03-10T18:38:16.262Z,81.90
2023-03-10T18:40:44.459Z,80.90
2023-03-10T18:43:12.984Z,81.10
2023-03-10T18:45:44.012Z,91.10
2023-03-10T18:48:12.231Z,78.90
2023-03-10T18:50:40.199Z,86.70
2023-03-10T18:53:08.234Z,107.00
2023-03-10T18:55:36.548Z,109.50
2023-03-10T18:58:05.034Z,92.30
2023-03-10T19:00:33.308Z,87.90
2023-03-10T19:03:01.238Z,100.40
2023-03-10T19:05:29.375Z,55.30
2023-03-10T19:07:57.331Z,47.40
2023-03-10T19:10:25.495Z,28.00
2023-03-10T19:12:53.938Z,20.80
2023-03-10T19:15:22.155Z,18.80
2023-03-10T19:17:50.060Z,11.90
2023-03-10T19:20:18.256Z,13.60
2023-03-10T19:22:49.693Z,13.20
2023-03-10T19:25:18.800Z,12.00
2023-03-10T19:27:49.055Z,15.30
2023-03-10T19:30:20.266Z,22.80
2023-03-10T19:32:48.678Z,17.10
2023-03-10T19:35:31.498Z,17.80
2023-03-10T19:38:01.217Z,20.90
2023-03-10T19:40:29.378Z,24.90
2023-03-10T19:42:58.230Z,29.50
2023-03-10T19:45:26.672Z,31.60
2023-03-10T19:47:55.184Z,28.30
2023-03-10T19:50:23.971Z,26.70
2023-03-10T19:52:51.972Z,26.00
2023-03-10T19:55:29.845Z,26.50
2023-03-10T19:58:14.828Z,25.40
2023-03-10T20:00:44.452Z,26.60
2023-03-10T20:03:13.775Z,26.10
2023-03-10T20:05:44.540Z,26.40
2023-03-10T20:08:13.150Z,31.40
2023-03-10T20:10:45.033Z,25.40
2023-03-10T20:13:16.514Z,23.30
2023-03-10T20:15:44.810Z,24.70
2023-03-10T20:18:13.088Z,24.50
2023-03-10T20:20:41.559Z,19.70
2023-03-10T20:23:12.916Z,21.60
2023-03-10T20:25:41.095Z,19.80
2023-03-10T20:28:09.314Z,21.70
2023-03-10T20:30:37.652Z,21.60
2023-03-10T20:33:05.659Z,20.20
2023-03-10T20:35:34.310Z,21.50
2023-03-10T20:38:02.356Z,20.60
2023-03-10T20:40:30.428Z,24.70
2023-03-10T20:42:59.857Z,28.70
2023-03-10T20:45:28.036Z,27.40
2023-03-10T20:47:56.504Z,24.50
2023-03-10T20:50:25.190Z,21.90
2023-03-10T20:52:53.492Z,24.10
2023-03-10T20:55:23.247Z,20.70
2023-03-10T20:57:52.054Z,22.20
2023-03-10T21:00:20.957Z,19.70
2023-03-10T21:02:49.523Z,16.80
2023-03-10T21:05:18.744Z,16.60
2023-03-10T21:07:47.397Z,14.50
2023-03-10T21:10:15.739Z,12.60
2023-03-10T21:12:44.284Z,15.00
2023-03-10T21:15:13.947Z,14.30
2023-03-10T21:17:42.056Z,13.00
2023-03-10T21:20:10.738Z,13.90
2023-03-10T21:22:40.056Z,13.50
2023-03-10T21:25:09.872Z,16.10
2023-03-10T21:27:39.188Z,13.90
2023-03-10T21:30:10.505Z,13.80
2023-03-10T21:32:38.774Z,13.10
2023-03-10T21:35:07.290Z,11.40
2023-03-10T21:37:37.878Z,15.70
2023-03-10T21:40:09.656Z,13.60
2023-03-10T21:42:42.379Z,11.20
2023-03-10T21:45:15.750Z,10.60
2023-03-10T21:47:48.688Z,9.20
2023-03-10T21:50:16.858Z,8.40
2023-03-10T21:52:45.343Z,9.40
2023-03-10T21:55:21.701Z,9.60
2023-03-10T21:57:50.386Z,9.90
2023-03-10T22:00:20.009Z,8.00
2023-03-10T22:02:49.350Z,7.20
2023-03-10T22:05:19.562Z,8.40
2023-03-10T22:07:49.559Z,7.50
2023-03-10T22:10:19.355Z,8.00
2023-03-10T22:12:50.643Z,9.30
2023-03-10T22:15:20.722Z,11.40
2023-03-10T22:17:50.570Z,8.60
2023-03-10T22:20:20.952Z,8.50
2023-03-10T22:22:49.916Z,10.20
2023-03-10T22:25:21.016Z,8.90
2023-03-10T22:27:54.840Z,11.00
2023-03-10T22:30:25.881Z,7.90
2023-03-10T22:32:54.966Z,9.00
2023-03-10T22:35:23.762Z,8.20
2023-03-10T22:37:52.235Z,9.50
2023-03-10T22:40:22.632Z,9.70
2023-03-10T22:42:51.124Z,8.50
2023-03-10T22:45:27.670Z,10.20
2023-03-10T22:47:57.188Z,9.60
2023-03-10T22:50:29.918Z,9.60
2023-03-10T22:53:02.955Z,11.90
2023-03-10T22:55:37.455Z,7.60
2023-03-10T22:58:07.501Z,9.30
2023-03-10T23:00:36.262Z,11.70
2023-03-10T23:03:05.142Z,10.60
2023-03-10T23:05:34.032Z,11.00
2023-03-10T23:08:02.178Z,12.10
2023-03-10T23:10:31.586Z,10.30
2023-03-10T23:13:01.242Z,9.80
2023-03-10T23:15:31.900Z,7.40
2023-03-10T23:18:00.170Z,12.20
2023-03-10T23:20:29.634Z,9.90
2023-03-10T23:22:59.054Z,13.20
2023-03-10T23:25:29.772Z,10.90
2023-03-10T23:27:59.286Z,10.80
2023-03-10T23:30:28.164Z,9.60
2023-03-10T23:32:56.828Z,10.10
2023-03-10T23:35:27.274Z,10.00
2023-03-10T23:37:55.529Z,8.50
2023-03-10T23:40:24.977Z,10.40
2023-03-10T23:42:57.031Z,12.10
2023-03-10T23:45:26.036Z,10.80
2023-03-10T23:47:55.797Z,7.40
2023-03-10T23:50:31.240Z,9.30
2023-03-10T23:52:59.495Z,9.60
2023-03-10T23:55:28.617Z,8.70
2023-03-10T23:57:56.757Z,8.90
